Airfield :
LOGIN :

Register | Disclaimer

   EN    FR    IT 

 










Legend :    VFR   Marginal VFR   IFR   Intensive IFR   Very Intensive IFR
Visi :
Ceiling :
>= 8 km
>= 3000ft
5 to 8 km
1000 to 3000 ft
1500m to 5 km
500 to 1000 ft
800 to 1500m
200 to 500 ft
< 800m
< 200 ft
Symbols :   Thunderstorms  Fog  Heavy snow  Heavy precipitations  Wind > 20 kt
SIGMETs :     Misc.  Thunderstorms  Icing  Turbulence  Mountain Waves  Volcanic Ashes






- Airport Elevation : 239 ft
- IATA code : VRN


LIPX - Villafranca Int. Verona

CURRENT METAR :
  • 181350Z 08013G23KT 9999 FEW020 BKN090 10/03 Q1010

EXPIRED METARs :
  • 181320Z 10009KT 060V140 9999 VCSH SCT020 BKN090 10/04 Q1010
  • 181250Z 08008KT 040V110 9999 BKN090 10/04 Q1010
  • 181220Z 08006KT 050V140 9999 BKN090 10/05 Q1010
  • 181150Z 09010KT 9999 FEW040 BKN090 09/05 Q1011
  • 181120Z 10008G19KT 060V150 9999 -RA SCT035 BKN080 09/05 Q1011
  • 181050Z 12004KT 080V170 9999 FEW020 BKN080 09/05 Q1010
  • 181020Z 18005KT 150V210 9999 FEW030 BKN075 08/04 Q1010
  • 180950Z 17006KT 9999 FEW030 BKN075 08/05 Q1010
  • 180920Z 14004KT 070V190 9999 -RA FEW010 SCT035 BKN060 08/04 Q1010 RERA

TAF TAF LIPX
Valid from the 18 at 12:00 until the 19 at 12:00 UTC


181100Z 1812/1912 09013KT 9999 SCT040
TEMPO 1812/1817 09015G25KT 4000 TSRA
BECMG 1816/1818 VRB05KT
BECMG 1910/1912 24010KT



MET'MAP, your aeronautical weather chart ! - Copyright ORBIFLY December 2007 - Disclaimer

ORBIFLY MET'MAP TEAM :

Programming & Development : Alexandra Zaïnal
Original concept : Baudouin d'Aumeries
Technical & hardware support : Manuel Goepfert
Assistance : Marc-Olivier Méhu




SOURCES & CREDITS :

   NOAA